sensor_id;sensor_type;location;lat;lon;timestamp;pressure;altitude;pressure_sealevel;temperature;humidity
55517;BME280;41724;51.176;-0.708;2023-02-25T00:02:22;101018.67;;;7.16;54.58
55517;BME280;41724;51.176;-0.708;2023-02-25T00:04:49;101019.81;;;7.35;54.19
55517;BME280;41724;51.176;-0.708;2023-02-25T00:07:17;101020.91;;;6.95;54.44
55517;BME280;41724;51.176;-0.708;2023-02-25T00:09:44;101023.03;;;7.24;54.46
55517;BME280;41724;51.176;-0.708;2023-02-25T00:12:11;101025.34;;;7.35;54.32
55517;BME280;41724;51.176;-0.708;2023-02-25T00:14:38;101025.07;;;7.18;54.22
55517;BME280;41724;51.176;-0.708;2023-02-25T00:17:06;101030.38;;;7.30;54.22
55517;BME280;41724;51.176;-0.708;2023-02-25T00:19:33;101029.69;;;7.09;54.78
55517;BME280;41724;51.176;-0.708;2023-02-25T00:22:00;101028.63;;;7.44;53.89
55517;BME280;41724;51.176;-0.708;2023-02-25T00:24:27;101032.39;;;6.71;54.83
55517;BME280;41724;51.176;-0.708;2023-02-25T00:26:55;101028.42;;;6.92;53.91
55517;BME280;41724;51.176;-0.708;2023-02-25T00:29:22;101032.68;;;7.07;54.39
55517;BME280;41724;51.176;-0.708;2023-02-25T00:31:49;101035.02;;;7.19;54.31
55517;BME280;41724;51.176;-0.708;2023-02-25T00:34:16;101036.13;;;6.43;55.17
55517;BME280;41724;51.176;-0.708;2023-02-25T00:36:43;101038.14;;;6.51;56.09
55517;BME280;41724;51.176;-0.708;2023-02-25T00:39:11;101038.22;;;6.40;55.99
55517;BME280;41724;51.176;-0.708;2023-02-25T00:41:38;101031.17;;;6.59;55.78
55517;BME280;41724;51.176;-0.708;2023-02-25T00:44:05;101033.21;;;6.97;55.49
55517;BME280;41724;51.176;-0.708;2023-02-25T00:46:33;101036.55;;;6.61;55.20
55517;BME280;41724;51.176;-0.708;2023-02-25T00:49:01;101036.83;;;6.76;55.50
55517;BME280;41724;51.176;-0.708;2023-02-25T00:51:29;101034.49;;;6.94;54.74
55517;BME280;41724;51.176;-0.708;2023-02-25T00:53:57;101035.28;;;6.87;54.80
55517;BME280;41724;51.176;-0.708;2023-02-25T00:56:25;101037.68;;;7.01;54.34
55517;BME280;41724;51.176;-0.708;2023-02-25T00:58:53;101041.38;;;7.25;54.32
55517;BME280;41724;51.176;-0.708;2023-02-25T01:01:22;101041.51;;;7.21;53.45
55517;BME280;41724;51.176;-0.708;2023-02-25T01:03:51;101040.02;;;7.24;53.71
55517;BME280;41724;51.176;-0.708;2023-02-25T01:06:19;101033.85;;;7.20;54.05
55517;BME280;41724;51.176;-0.708;2023-02-25T01:08:46;101033.17;;;6.94;54.20
55517;BME280;41724;51.176;-0.708;2023-02-25T01:11:16;101033.20;;;7.24;54.23
55517;BME280;41724;51.176;-0.708;2023-02-25T01:13:43;101036.07;;;7.34;53.74
55517;BME280;41724;51.176;-0.708;2023-02-25T01:16:12;101035.33;;;7.33;53.86
55517;BME280;41724;51.176;-0.708;2023-02-25T01:18:40;101034.97;;;7.34;53.14
55517;BME280;41724;51.176;-0.708;2023-02-25T01:21:16;101032.36;;;7.02;53.36
55517;BME280;41724;51.176;-0.708;2023-02-25T01:23:44;101035.30;;;6.91;54.53
55517;BME280;41724;51.176;-0.708;2023-02-25T01:26:12;101035.55;;;6.91;54.08
55517;BME280;41724;51.176;-0.708;2023-02-25T01:28:40;101035.77;;;7.11;54.09
55517;BME280;41724;51.176;-0.708;2023-02-25T01:31:16;101030.74;;;6.98;53.83
55517;BME280;41724;51.176;-0.708;2023-02-25T01:33:44;101030.22;;;6.85;54.50
55517;BME280;41724;51.176;-0.708;2023-02-25T01:36:11;101026.67;;;7.22;54.10
55517;BME280;41724;51.176;-0.708;2023-02-25T01:38:39;101028.41;;;7.35;53.47
55517;BME280;41724;51.176;-0.708;2023-02-25T01:41:06;101030.07;;;6.99;54.63
55517;BME280;41724;51.176;-0.708;2023-02-25T01:43:33;101030.73;;;7.18;53.70
55517;BME280;41724;51.176;-0.708;2023-02-25T01:46:01;101029.22;;;7.57;53.28
55517;BME280;41724;51.176;-0.708;2023-02-25T01:48:30;101025.57;;;7.20;54.19
55517;BME280;41724;51.176;-0.708;2023-02-25T01:51:01;101030.72;;;7.40;53.82
55517;BME280;41724;51.176;-0.708;2023-02-25T01:53:31;101030.54;;;7.50;52.71
55517;BME280;41724;51.176;-0.708;2023-02-25T01:56:00;101028.85;;;7.31;53.40
55517;BME280;41724;51.176;-0.708;2023-02-25T01:58:29;101023.57;;;7.18;53.08
55517;BME280;41724;51.176;-0.708;2023-02-25T02:00:57;101021.56;;;7.43;52.93
55517;BME280;41724;51.176;-0.708;2023-02-25T02:03:27;101027.52;;;7.28;53.08
55517;BME280;41724;51.176;-0.708;2023-02-25T02:06:02;101031.54;;;7.17;53.35
55517;BME280;41724;51.176;-0.708;2023-02-25T02:08:32;101037.04;;;7.24;53.48
55517;BME280;41724;51.176;-0.708;2023-02-25T02:11:00;101041.17;;;7.30;53.63
55517;BME280;41724;51.176;-0.708;2023-02-25T02:13:28;101042.54;;;6.74;54.23
55517;BME280;41724;51.176;-0.708;2023-02-25T02:16:07;101044.62;;;6.72;54.66
55517;BME280;41724;51.176;-0.708;2023-02-25T02:18:39;101047.36;;;6.88;54.09
55517;BME280;41724;51.176;-0.708;2023-02-25T02:21:23;101046.70;;;7.16;53.67
55517;BME280;41724;51.176;-0.708;2023-02-25T02:24:25;101044.41;;;6.97;53.73
55517;BME280;41724;51.176;-0.708;2023-02-25T02:27:00;101044.29;;;6.89;54.44
55517;BME280;41724;51.176;-0.708;2023-02-25T02:29:55;101045.69;;;6.79;54.14
55517;BME280;41724;51.176;-0.708;2023-02-25T02:32:34;101049.48;;;6.67;55.03
55517;BME280;41724;51.176;-0.708;2023-02-25T02:35:11;101051.07;;;6.94;54.32
55517;BME280;41724;51.176;-0.708;2023-02-25T02:37:46;101053.54;;;6.75;54.00
55517;BME280;41724;51.176;-0.708;2023-02-25T02:40:23;101058.29;;;6.61;55.05
55517;BME280;41724;51.176;-0.708;2023-02-25T02:43:05;101059.02;;;6.76;54.39
55517;BME280;41724;51.176;-0.708;2023-02-25T02:45:43;101052.66;;;6.70;54.52
55517;BME280;41724;51.176;-0.708;2023-02-25T02:48:17;101047.17;;;6.67;54.23
55517;BME280;41724;51.176;-0.708;2023-02-25T02:50:51;101044.14;;;6.85;54.48
55517;BME280;41724;51.176;-0.708;2023-02-25T02:53:24;101043.53;;;6.76;54.26
55517;BME280;41724;51.176;-0.708;2023-02-25T02:55:55;101045.27;;;6.53;54.69
55517;BME280;41724;51.176;-0.708;2023-02-25T02:58:27;101050.31;;;6.47;55.19
55517;BME280;41724;51.176;-0.708;2023-02-25T03:01:02;101054.76;;;6.52;54.98
55517;BME280;41724;51.176;-0.708;2023-02-25T03:03:34;101054.53;;;6.55;54.68
55517;BME280;41724;51.176;-0.708;2023-02-25T03:06:08;101053.61;;;6.44;55.46
55517;BME280;41724;51.176;-0.708;2023-02-25T03:08:42;101050.04;;;6.56;55.39
55517;BME280;41724;51.176;-0.708;2023-02-25T03:11:10;101050.51;;;6.81;54.51
55517;BME280;41724;51.176;-0.708;2023-02-25T03:13:37;101048.59;;;6.88;54.18
55517;BME280;41724;51.176;-0.708;2023-02-25T03:16:08;101049.49;;;7.11;54.25
55517;BME280;41724;51.176;-0.708;2023-02-25T03:18:37;101050.90;;;6.98;54.54
55517;BME280;41724;51.176;-0.708;2023-02-25T03:21:14;101038.27;;;7.19;54.33
55517;BME280;41724;51.176;-0.708;2023-02-25T03:23:46;101039.04;;;7.10;54.29
55517;BME280;41724;51.176;-0.708;2023-02-25T03:26:21;101033.43;;;7.35;53.68
55517;BME280;41724;51.176;-0.708;2023-02-25T03:28:49;101035.33;;;6.95;53.00
55517;BME280;41724;51.176;-0.708;2023-02-25T03:31:20;101040.12;;;7.50;53.28
55517;BME280;41724;51.176;-0.708;2023-02-25T03:33:53;101038.92;;;7.23;52.60
55517;BME280;41724;51.176;-0.708;2023-02-25T03:36:25;101038.08;;;7.12;52.91
55517;BME280;41724;51.176;-0.708;2023-02-25T03:38:58;101042.13;;;6.95;54.09
55517;BME280;41724;51.176;-0.708;2023-02-25T03:41:29;101041.07;;;7.26;53.31
55517;BME280;41724;51.176;-0.708;2023-02-25T03:43:58;101043.53;;;6.92;53.83
55517;BME280;41724;51.176;-0.708;2023-02-25T03:46:26;101047.28;;;6.86;53.86
55517;BME280;41724;51.176;-0.708;2023-02-25T03:48:55;101047.14;;;6.66;54.38
55517;BME280;41724;51.176;-0.708;2023-02-25T03:51:27;101046.78;;;6.69;53.95
55517;BME280;41724;51.176;-0.708;2023-02-25T03:53:55;101044.36;;;6.77;53.59
55517;BME280;41724;51.176;-0.708;2023-02-25T03:56:23;101046.67;;;6.34;54.36
55517;BME280;41724;51.176;-0.708;2023-02-25T03:58:49;101047.36;;;6.29;55.09
55517;BME280;41724;51.176;-0.708;2023-02-25T04:01:22;101044.45;;;6.33;54.97
55517;BME280;41724;51.176;-0.708;2023-02-25T04:03:50;101047.97;;;6.08;55.14
55517;BME280;41724;51.176;-0.708;2023-02-25T04:06:23;101049.33;;;6.55;54.84
55517;BME280;41724;51.176;-0.708;2023-02-25T04:08:51;101057.00;;;6.30;55.18
55517;BME280;41724;51.176;-0.708;2023-02-25T04:11:18;101063.22;;;6.03;55.06
55517;BME280;41724;51.176;-0.708;2023-02-25T04:13:45;101063.39;;;6.30;54.77
55517;BME280;41724;51.176;-0.708;2023-02-25T04:16:12;101068.95;;;6.33;54.56
55517;BME280;41724;51.176;-0.708;2023-02-25T04:18:39;101070.51;;;6.01;54.97
55517;BME280;41724;51.176;-0.708;2023-02-25T04:21:07;101073.80;;;6.16;54.79
55517;BME280;41724;51.176;-0.708;2023-02-25T04:23:35;101073.98;;;6.34;54.62
55517;BME280;41724;51.176;-0.708;2023-02-25T04:26:02;101076.84;;;6.57;54.15
55517;BME280;41724;51.176;-0.708;2023-02-25T04:28:29;101078.16;;;6.26;54.44
55517;BME280;41724;51.176;-0.708;2023-02-25T04:30:56;101079.35;;;6.60;54.64
55517;BME280;41724;51.176;-0.708;2023-02-25T04:33:24;101082.64;;;6.62;54.95
55517;BME280;41724;51.176;-0.708;2023-02-25T04:35:51;101078.48;;;6.58;54.67
55517;BME280;41724;51.176;-0.708;2023-02-25T04:38:18;101075.17;;;7.03;54.04
55517;BME280;41724;51.176;-0.708;2023-02-25T04:40:48;101074.09;;;6.88;53.52
55517;BME280;41724;51.176;-0.708;2023-02-25T04:43:16;101074.51;;;7.18;53.45
55517;BME280;41724;51.176;-0.708;2023-02-25T04:45:44;101077.09;;;7.02;53.09
55517;BME280;41724;51.176;-0.708;2023-02-25T04:48:11;101080.74;;;7.02;53.35
55517;BME280;41724;51.176;-0.708;2023-02-25T04:50:38;101067.44;;;7.49;52.27
55517;BME280;41724;51.176;-0.708;2023-02-25T04:53:05;101065.92;;;7.22;52.64
55517;BME280;41724;51.176;-0.708;2023-02-25T04:55:35;101069.21;;;6.79;54.10
55517;BME280;41724;51.176;-0.708;2023-02-25T04:58:02;101071.94;;;7.12;52.97
55517;BME280;41724;51.176;-0.708;2023-02-25T05:00:30;101074.54;;;7.17;52.99
55517;BME280;41724;51.176;-0.708;2023-02-25T05:02:57;101072.79;;;7.01;53.82
55517;BME280;41724;51.176;-0.708;2023-02-25T05:05:24;101068.31;;;7.34;53.52
55517;BME280;41724;51.176;-0.708;2023-02-25T05:07:52;101067.72;;;6.57;54.04
55517;BME280;41724;51.176;-0.708;2023-02-25T05:10:19;101073.62;;;7.14;53.46
55517;BME280;41724;51.176;-0.708;2023-02-25T05:12:46;101073.19;;;5.79;55.18
55517;BME280;41724;51.176;-0.708;2023-02-25T05:15:13;101075.55;;;6.81;55.19
55517;BME280;41724;51.176;-0.708;2023-02-25T05:17:41;101072.80;;;6.56;54.90
55517;BME280;41724;51.176;-0.708;2023-02-25T05:20:09;101071.24;;;6.84;54.52
55517;BME280;41724;51.176;-0.708;2023-02-25T05:22:36;101073.54;;;6.85;54.11
55517;BME280;41724;51.176;-0.708;2023-02-25T05:25:04;101071.63;;;6.86;53.79
55517;BME280;41724;51.176;-0.708;2023-02-25T05:27:31;101074.45;;;6.81;54.69
55517;BME280;41724;51.176;-0.708;2023-02-25T05:29:58;101077.96;;;7.20;53.48
55517;BME280;41724;51.176;-0.708;2023-02-25T05:32:25;101078.76;;;6.88;54.65
55517;BME280;41724;51.176;-0.708;2023-02-25T05:34:52;101080.73;;;7.20;53.20
55517;BME280;41724;51.176;-0.708;2023-02-25T05:37:20;101076.48;;;7.59;52.48
55517;BME280;41724;51.176;-0.708;2023-02-25T05:39:47;101075.44;;;7.37;52.86
55517;BME280;41724;51.176;-0.708;2023-02-25T05:42:14;101080.24;;;7.83;51.98
55517;BME280;41724;51.176;-0.708;2023-02-25T05:44:42;101072.22;;;7.53;52.48
55517;BME280;41724;51.176;-0.708;2023-02-25T05:47:09;101077.17;;;7.52;52.24
55517;BME280;41724;51.176;-0.708;2023-02-25T05:49:36;101078.72;;;7.37;52.26
55517;BME280;41724;51.176;-0.708;2023-02-25T05:52:03;101082.14;;;7.19;52.60
55517;BME280;41724;51.176;-0.708;2023-02-25T05:54:30;101085.85;;;7.84;51.86
55517;BME280;41724;51.176;-0.708;2023-02-25T05:56:58;101091.66;;;7.22;52.82
55517;BME280;41724;51.176;-0.708;2023-02-25T05:59:25;101087.40;;;7.32;52.42
55517;BME280;41724;51.176;-0.708;2023-02-25T06:01:53;101094.29;;;7.71;51.76
55517;BME280;41724;51.176;-0.708;2023-02-25T06:04:20;101096.95;;;7.31;51.39
55517;BME280;41724;51.176;-0.708;2023-02-25T06:06:47;101104.91;;;7.77;51.56
55517;BME280;41724;51.176;-0.708;2023-02-25T06:09:14;101109.90;;;7.66;51.63
55517;BME280;41724;51.176;-0.708;2023-02-25T06:11:42;101113.52;;;7.65;51.79
55517;BME280;41724;51.176;-0.708;2023-02-25T06:14:09;101117.38;;;7.56;51.09
55517;BME280;41724;51.176;-0.708;2023-02-25T06:16:38;101112.80;;;7.72;51.34
55517;BME280;41724;51.176;-0.708;2023-02-25T06:19:06;101114.89;;;7.61;51.15
55517;BME280;41724;51.176;-0.708;2023-02-25T06:21:35;101114.32;;;8.05;50.85
55517;BME280;41724;51.176;-0.708;2023-02-25T06:24:02;101115.13;;;7.83;51.14
55517;BME280;41724;51.176;-0.708;2023-02-25T06:26:30;101110.74;;;7.88;50.98
55517;BME280;41724;51.176;-0.708;2023-02-25T06:28:57;101114.86;;;7.82;50.61
55517;BME280;41724;51.176;-0.708;2023-02-25T06:31:25;101120.00;;;7.34;51.52
55517;BME280;41724;51.176;-0.708;2023-02-25T06:33:52;101117.82;;;7.71;50.97
55517;BME280;41724;51.176;-0.708;2023-02-25T06:36:20;101112.24;;;7.72;51.27
55517;BME280;41724;51.176;-0.708;2023-02-25T06:38:47;101115.18;;;8.06;51.06
55517;BME280;41724;51.176;-0.708;2023-02-25T06:41:16;101120.02;;;7.81;49.97
55517;BME280;41724;51.176;-0.708;2023-02-25T06:43:45;101120.45;;;7.80;51.51
55517;BME280;41724;51.176;-0.708;2023-02-25T06:46:13;101122.97;;;8.08;50.14
55517;BME280;41724;51.176;-0.708;2023-02-25T06:48:41;101125.46;;;7.83;51.55
55517;BME280;41724;51.176;-0.708;2023-02-25T06:51:08;101127.14;;;8.05;50.95
55517;BME280;41724;51.176;-0.708;2023-02-25T06:53:35;101133.15;;;8.08;51.49
55517;BME280;41724;51.176;-0.708;2023-02-25T06:56:03;101136.17;;;8.07;50.46
55517;BME280;41724;51.176;-0.708;2023-02-25T06:58:30;101136.40;;;8.27;49.87
55517;BME280;41724;51.176;-0.708;2023-02-25T07:00:58;101144.35;;;7.82;50.76
55517;BME280;41724;51.176;-0.708;2023-02-25T07:03:26;101147.74;;;7.78;50.54
55517;BME280;41724;51.176;-0.708;2023-02-25T07:05:58;101147.23;;;7.89;50.96
55517;BME280;41724;51.176;-0.708;2023-02-25T07:08:26;101152.66;;;7.87;50.89
55517;BME280;41724;51.176;-0.708;2023-02-25T07:10:53;101154.18;;;8.07;50.61
55517;BME280;41724;51.176;-0.708;2023-02-25T07:13:20;101153.56;;;8.07;50.20
55517;BME280;41724;51.176;-0.708;2023-02-25T07:15:48;101153.78;;;8.12;50.99
55517;BME280;41724;51.176;-0.708;2023-02-25T07:18:15;101155.59;;;8.19;50.95
55517;BME280;41724;51.176;-0.708;2023-02-25T07:20:42;101160.00;;;7.61;51.14
55517;BME280;41724;51.176;-0.708;2023-02-25T07:23:09;101165.55;;;8.04;50.13
55517;BME280;41724;51.176;-0.708;2023-02-25T07:25:37;101163.53;;;7.67;51.14
55517;BME280;41724;51.176;-0.708;2023-02-25T07:28:04;101165.85;;;8.11;50.41
55517;BME280;41724;51.176;-0.708;2023-02-25T07:30:32;101169.09;;;8.23;50.53
55517;BME280;41724;51.176;-0.708;2023-02-25T07:32:59;101170.54;;;8.05;50.57
55517;BME280;41724;51.176;-0.708;2023-02-25T07:35:32;101168.24;;;8.41;49.80
55517;BME280;41724;51.176;-0.708;2023-02-25T07:37:59;101172.51;;;8.44;49.64
55517;BME280;41724;51.176;-0.708;2023-02-25T07:40:26;101182.98;;;8.43;50.06
55517;BME280;41724;51.176;-0.708;2023-02-25T07:42:57;101189.58;;;8.65;49.58
55517;BME280;41724;51.176;-0.708;2023-02-25T07:45:23;101185.39;;;7.99;50.99
55517;BME280;41724;51.176;-0.708;2023-02-25T07:47:52;101187.65;;;8.34;50.17
55517;BME280;41724;51.176;-0.708;2023-02-25T07:50:19;101188.99;;;8.33;50.09
55517;BME280;41724;51.176;-0.708;2023-02-25T07:52:46;101193.35;;;8.42;49.91
55517;BME280;41724;51.176;-0.708;2023-02-25T07:55:13;101193.89;;;8.50;50.46
55517;BME280;41724;51.176;-0.708;2023-02-25T07:57:40;101190.31;;;8.20;50.27
55517;BME280;41724;51.176;-0.708;2023-02-25T08:00:09;101193.17;;;8.04;51.05
55517;BME280;41724;51.176;-0.708;2023-02-25T08:02:36;101189.52;;;8.74;48.93
55517;BME280;41724;51.176;-0.708;2023-02-25T08:05:03;101188.04;;;7.86;50.67
55517;BME280;41724;51.176;-0.708;2023-02-25T08:07:31;101191.47;;;8.14;49.97
55517;BME280;41724;51.176;-0.708;2023-02-25T08:09:58;101195.88;;;8.38;50.25
55517;BME280;41724;51.176;-0.708;2023-02-25T08:12:25;101198.56;;;8.28;51.23
55517;BME280;41724;51.176;-0.708;2023-02-25T08:14:53;101198.78;;;8.75;50.03
55517;BME280;41724;51.176;-0.708;2023-02-25T08:17:20;101203.07;;;8.53;49.12
55517;BME280;41724;51.176;-0.708;2023-02-25T08:19:47;101203.10;;;8.71;49.10
55517;BME280;41724;51.176;-0.708;2023-02-25T08:22:14;101200.98;;;8.64;48.75
55517;BME280;41724;51.176;-0.708;2023-02-25T08:24:42;101201.22;;;8.79;48.95
55517;BME280;41724;51.176;-0.708;2023-02-25T08:27:09;101202.45;;;8.19;49.54
55517;BME280;41724;51.176;-0.708;2023-02-25T08:29:36;101202.32;;;8.63;48.91
55517;BME280;41724;51.176;-0.708;2023-02-25T08:32:05;101198.78;;;8.73;49.25
55517;BME280;41724;51.176;-0.708;2023-02-25T08:34:32;101202.47;;;8.76;49.25
55517;BME280;41724;51.176;-0.708;2023-02-25T08:37:00;101197.83;;;8.94;48.26
55517;BME280;41724;51.176;-0.708;2023-02-25T08:39:27;101193.89;;;8.99;48.84
55517;BME280;41724;51.176;-0.708;2023-02-25T08:41:54;101191.55;;;8.79;49.17
55517;BME280;41724;51.176;-0.708;2023-02-25T08:44:21;101186.16;;;8.83;48.82
55517;BME280;41724;51.176;-0.708;2023-02-25T08:46:49;101188.57;;;8.70;48.66
55517;BME280;41724;51.176;-0.708;2023-02-25T08:49:15;101200.44;;;8.47;49.27
55517;BME280;41724;51.176;-0.708;2023-02-25T08:51:43;101206.98;;;8.27;50.42
55517;BME280;41724;51.176;-0.708;2023-02-25T08:54:12;101208.62;;;8.21;51.35
55517;BME280;41724;51.176;-0.708;2023-02-25T08:56:39;101209.77;;;8.32;50.56
55517;BME280;41724;51.176;-0.708;2023-02-25T08:59:08;101214.66;;;7.85;51.42
55517;BME280;41724;51.176;-0.708;2023-02-25T09:01:36;101205.88;;;8.36;51.78
55517;BME280;41724;51.176;-0.708;2023-02-25T09:04:03;101209.06;;;8.19;51.57
55517;BME280;41724;51.176;-0.708;2023-02-25T09:06:30;101206.71;;;7.74;52.90
55517;BME280;41724;51.176;-0.708;2023-02-25T09:08:57;101207.42;;;8.26;52.62
55517;BME280;41724;51.176;-0.708;2023-02-25T09:11:25;101199.56;;;8.42;51.69
55517;BME280;41724;51.176;-0.708;2023-02-25T09:13:52;101205.73;;;8.77;51.72
55517;BME280;41724;51.176;-0.708;2023-02-25T09:16:19;101201.87;;;8.22;51.28
55517;BME280;41724;51.176;-0.708;2023-02-25T09:18:48;101203.84;;;8.63;51.27
55517;BME280;41724;51.176;-0.708;2023-02-25T09:21:16;101202.01;;;8.99;49.82
55517;BME280;41724;51.176;-0.708;2023-02-25T09:23:43;101201.29;;;9.03;49.30
55517;BME280;41724;51.176;-0.708;2023-02-25T09:26:12;101202.54;;;8.47;50.14
55517;BME280;41724;51.176;-0.708;2023-02-25T09:28:39;101197.33;;;8.29;51.01
55517;BME280;41724;51.176;-0.708;2023-02-25T09:31:06;101204.05;;;8.82;50.34
55517;BME280;41724;51.176;-0.708;2023-02-25T09:33:35;101208.51;;;7.79;54.29
55517;BME280;41724;51.176;-0.708;2023-02-25T09:36:05;101206.20;;;7.82;53.34
55517;BME280;41724;51.176;-0.708;2023-02-25T09:38:32;101205.75;;;8.24;52.19
55517;BME280;41724;51.176;-0.708;2023-02-25T09:41:00;101210.28;;;8.70;52.15
55517;BME280;41724;51.176;-0.708;2023-02-25T09:43:29;101210.47;;;8.26;52.65
55517;BME280;41724;51.176;-0.708;2023-02-25T09:46:06;101211.83;;;8.79;50.56
55517;BME280;41724;51.176;-0.708;2023-02-25T09:48:42;101217.09;;;9.00;49.12
55517;BME280;41724;51.176;-0.708;2023-02-25T09:51:21;101218.57;;;8.96;49.96
55517;BME280;41724;51.176;-0.708;2023-02-25T09:53:53;101217.99;;;8.61;50.47
55517;BME280;41724;51.176;-0.708;2023-02-25T09:56:25;101216.60;;;9.07;49.42
55517;BME280;41724;51.176;-0.708;2023-02-25T09:58:56;101216.50;;;8.14;50.84
55517;BME280;41724;51.176;-0.708;2023-02-25T10:01:30;101224.33;;;8.70;51.69
55517;BME280;41724;51.176;-0.708;2023-02-25T10:04:04;101218.77;;;8.90;51.38
55517;BME280;41724;51.176;-0.708;2023-02-25T10:06:36;101228.11;;;8.57;50.97
55517;BME280;41724;51.176;-0.708;2023-02-25T10:09:12;101228.31;;;8.98;50.37
55517;BME280;41724;51.176;-0.708;2023-02-25T10:11:48;101226.73;;;9.49;49.08
55517;BME280;41724;51.176;-0.708;2023-02-25T10:14:27;101232.54;;;8.82;50.81
55517;BME280;41724;51.176;-0.708;2023-02-25T10:17:03;101223.57;;;8.85;49.87
55517;BME280;41724;51.176;-0.708;2023-02-25T10:19:49;101227.37;;;9.17;47.81
55517;BME280;41724;51.176;-0.708;2023-02-25T10:22:35;101228.42;;;9.37;48.42
55517;BME280;41724;51.176;-0.708;2023-02-25T10:25:12;101235.73;;;9.25;48.08
55517;BME280;41724;51.176;-0.708;2023-02-25T10:27:43;101238.67;;;9.80;48.54
55517;BME280;41724;51.176;-0.708;2023-02-25T10:30:16;101227.46;;;9.44;48.83
55517;BME280;41724;51.176;-0.708;2023-02-25T10:32:45;101223.35;;;9.79;48.55
55517;BME280;41724;51.176;-0.708;2023-02-25T10:35:16;101227.98;;;10.19;47.55
55517;BME280;41724;51.176;-0.708;2023-02-25T10:37:45;101232.07;;;10.36;46.95
55517;BME280;41724;51.176;-0.708;2023-02-25T10:40:15;101239.11;;;9.74;46.81
55517;BME280;41724;51.176;-0.708;2023-02-25T10:42:45;101239.82;;;9.40;47.32
55517;BME280;41724;51.176;-0.708;2023-02-25T10:45:24;101240.06;;;9.03;47.92
55517;BME280;41724;51.176;-0.708;2023-02-25T10:47:58;101235.59;;;9.86;46.12
55517;BME280;41724;51.176;-0.708;2023-02-25T10:50:30;101238.12;;;9.13;49.18
55517;BME280;41724;51.176;-0.708;2023-02-25T10:52:59;101251.05;;;9.85;49.08
55517;BME280;41724;51.176;-0.708;2023-02-25T10:55:40;101246.17;;;9.82;49.10
55517;BME280;41724;51.176;-0.708;2023-02-25T10:58:24;101245.13;;;9.99;47.05
55517;BME280;41724;51.176;-0.708;2023-02-25T11:00:56;101249.41;;;9.18;46.49
55517;BME280;41724;51.176;-0.708;2023-02-25T11:03:24;101250.60;;;8.83;49.55
55517;BME280;41724;51.176;-0.708;2023-02-25T11:06:09;101251.06;;;9.19;48.97
55517;BME280;41724;51.176;-0.708;2023-02-25T11:08:36;101251.60;;;9.70;48.09
55517;BME280;41724;51.176;-0.708;2023-02-25T11:11:15;101247.81;;;8.81;48.26
55517;BME280;41724;51.176;-0.708;2023-02-25T11:13:58;101251.29;;;9.96;47.06
55517;BME280;41724;51.176;-0.708;2023-02-25T11:16:26;101245.67;;;10.23;46.83
55517;BME280;41724;51.176;-0.708;2023-02-25T11:18:57;101240.61;;;9.31;46.75
55517;BME280;41724;51.176;-0.708;2023-02-25T11:21:31;101245.65;;;9.05;47.70
55517;BME280;41724;51.176;-0.708;2023-02-25T11:24:01;101243.71;;;8.95;47.41
55517;BME280;41724;51.176;-0.708;2023-02-25T11:26:33;101242.44;;;9.31;47.00
55517;BME280;41724;51.176;-0.708;2023-02-25T11:29:06;101242.94;;;9.64;46.93
55517;BME280;41724;51.176;-0.708;2023-02-25T11:31:38;101241.09;;;8.60;47.14
55517;BME280;41724;51.176;-0.708;2023-02-25T11:34:13;101241.25;;;9.51;46.67
55517;BME280;41724;51.176;-0.708;2023-02-25T11:36:41;101243.18;;;9.32;46.17
55517;BME280;41724;51.176;-0.708;2023-02-25T11:39:16;101245.16;;;9.14;46.44
55517;BME280;41724;51.176;-0.708;2023-02-25T11:41:45;101241.74;;;9.03;47.08
55517;BME280;41724;51.176;-0.708;2023-02-25T11:44:24;101240.13;;;9.34;47.88
55517;BME280;41724;51.176;-0.708;2023-02-25T11:47:03;101236.89;;;9.97;48.64
55517;BME280;41724;51.176;-0.708;2023-02-25T11:49:49;101229.66;;;10.74;45.20
55517;BME280;41724;51.176;-0.708;2023-02-25T11:52:23;101228.60;;;9.71;47.98
55517;BME280;41724;51.176;-0.708;2023-02-25T11:55:03;101226.41;;;10.70;46.56
55517;BME280;41724;51.176;-0.708;2023-02-25T11:57:39;101219.14;;;11.11;42.86
55517;BME280;41724;51.176;-0.708;2023-02-25T12:00:22;101217.24;;;11.52;42.52
55517;BME280;41724;51.176;-0.708;2023-02-25T12:03:04;101217.72;;;11.69;41.19
55517;BME280;41724;51.176;-0.708;2023-02-25T12:05:48;101219.55;;;12.41;40.84
55517;BME280;41724;51.176;-0.708;2023-02-25T12:08:25;101208.44;;;12.04;43.05
55517;BME280;41724;51.176;-0.708;2023-02-25T12:11:45;101200.66;;;12.09;40.84
55517;BME280;41724;51.176;-0.708;2023-02-25T12:15:42;101200.89;;;12.11;40.91
55517;BME280;41724;51.176;-0.708;2023-02-25T12:18:34;101204.86;;;11.48;39.06
55517;BME280;41724;51.176;-0.708;2023-02-25T12:21:35;101209.54;;;10.86;40.82
55517;BME280;41724;51.176;-0.708;2023-02-25T12:24:56;101209.48;;;10.55;40.20
55517;BME280;41724;51.176;-0.708;2023-02-25T12:27:46;101218.64;;;10.13;41.26
55517;BME280;41724;51.176;-0.708;2023-02-25T12:30:35;101218.60;;;9.20;43.33
55517;BME280;41724;51.176;-0.708;2023-02-25T12:33:21;101213.35;;;9.27;43.82
55517;BME280;41724;51.176;-0.708;2023-02-25T12:35:57;101208.29;;;9.25;43.00
55517;BME280;41724;51.176;-0.708;2023-02-25T12:39:19;101206.50;;;10.27;42.70
55517;BME280;41724;51.176;-0.708;2023-02-25T12:42:01;101206.09;;;9.50;40.44
55517;BME280;41724;51.176;-0.708;2023-02-25T12:44:49;101207.24;;;10.10;40.80
55517;BME280;41724;51.176;-0.708;2023-02-25T12:47:23;101203.19;;;9.24;44.58
55517;BME280;41724;51.176;-0.708;2023-02-25T12:50:16;101195.76;;;9.78;40.26
55517;BME280;41724;51.176;-0.708;2023-02-25T12:52:57;101192.66;;;10.05;39.81
55517;BME280;41724;51.176;-0.708;2023-02-25T12:55:46;101188.90;;;9.55;41.42
55517;BME280;41724;51.176;-0.708;2023-02-25T12:58:25;101191.37;;;9.81;41.82
55517;BME280;41724;51.176;-0.708;2023-02-25T13:01:37;101178.70;;;10.87;41.78
55517;BME280;41724;51.176;-0.708;2023-02-25T13:04:22;101181.61;;;11.51;38.00
55517;BME280;41724;51.176;-0.708;2023-02-25T13:07:10;101175.43;;;11.14;37.62
55517;BME280;41724;51.176;-0.708;2023-02-25T13:09:54;101182.22;;;10.99;38.23
55517;BME280;41724;51.176;-0.708;2023-02-25T13:12:45;101177.83;;;11.17;38.71
55517;BME280;41724;51.176;-0.708;2023-02-25T13:15:21;101182.75;;;10.72;39.01